Time;durP1;ratioP1;P1;durP2;ratioP2;P2;SDS_P1;SDS_P2;PMS_P1;PMS_P2;Temp;Humidity;BMP_temperature;BMP_pressure;BME280_temperature;BME280_humidity;BME280_pressure;Samples;Min_cycle;Max_cycle;Signal;HPM_P1;HPM_P2
2023/10/28 00:02:20;;;;;;;36.50;27.03;;;21.50;46.00;;;;;;4967769;28;20460;-83
2023/10/28 00:04:45;;;;;;;35.50;27.30;;;21.50;46.00;;;;;;4971606;28;20480;-83
2023/10/28 00:07:11;;;;;;;33.40;25.70;;;21.50;46.00;;;;;;4949522;28;20459;-84
2023/10/28 00:09:37;;;;;;;36.80;27.00;;;21.50;46.00;;;;;;4964200;28;20322;-82
2023/10/28 00:12:02;;;;;;;37.10;28.07;;;21.50;46.00;;;;;;4968889;28;20235;-82
2023/10/28 00:14:28;;;;;;;35.47;25.70;;;21.50;46.00;;;;;;4969754;28;20251;-83
2023/10/28 00:16:53;;;;;;;32.93;24.93;;;21.50;46.00;;;;;;4953157;28;20212;-83
2023/10/28 00:19:20;;;;;;;36.40;27.13;;;21.50;46.00;;;;;;4966750;28;20240;-82
2023/10/28 00:21:45;;;;;;;37.80;27.37;;;21.50;46.00;;;;;;4968478;28;20220;-82
2023/10/28 00:24:11;;;;;;;35.23;26.23;;;21.50;46.00;;;;;;4945760;28;20465;-82
2023/10/28 00:26:37;;;;;;;36.83;26.50;;;21.50;46.00;;;;;;4960171;28;20223;-83
2023/10/28 00:29:02;;;;;;;35.10;26.87;;;21.50;46.00;;;;;;4961806;28;20228;-83
2023/10/28 00:31:28;;;;;;;38.83;26.97;;;21.50;46.00;;;;;;4964916;28;20323;-82
2023/10/28 00:33:54;;;;;;;32.93;25.37;;;21.50;46.10;;;;;;4965313;28;20683;-83
2023/10/28 00:36:19;;;;;;;36.67;25.27;;;21.50;46.10;;;;;;4964770;28;20224;-82
2023/10/28 00:38:45;;;;;;;34.90;25.33;;;21.50;46.00;;;;;;4962116;28;20259;-83
2023/10/28 00:41:11;;;;;;;35.00;27.10;;;21.50;46.00;;;;;;4964431;28;20232;-82
2023/10/28 00:43:36;;;;;;;36.00;25.93;;;21.50;46.00;;;;;;4968181;28;20232;-83
2023/10/28 00:46:03;;;;;;;29.87;24.53;;;21.50;46.00;;;;;;4964868;28;20256;-82
2023/10/28 00:48:31;;;;;;;32.63;24.60;;;21.50;46.00;;;;;;4964902;28;20278;-83
2023/10/28 00:50:57;;;;;;;33.60;25.87;;;21.50;46.00;;;;;;4966201;28;20470;-83
2023/10/28 00:53:25;;;;;;;33.10;25.23;;;21.50;46.00;;;;;;4957476;28;20453;-83
2023/10/28 00:55:51;;;;;;;30.03;24.30;;;21.50;46.00;;;;;;4943289;28;20461;-83
2023/10/28 00:58:20;;;;;;;32.50;24.37;;;21.50;46.00;;;;;;4965683;28;20466;-83
2023/10/28 01:00:45;;;;;;;34.30;24.33;;;21.50;46.00;;;;;;4963183;28;21006;-83
2023/10/28 01:03:11;;;;;;;29.57;23.10;;;21.50;46.00;;;;;;4960698;28;20469;-82
2023/10/28 01:05:37;;;;;;;33.03;24.70;;;21.50;46.00;;;;;;4960468;28;20567;-83
2023/10/28 01:08:03;;;;;;;28.97;21.87;;;21.50;46.00;;;;;;4960605;28;20235;-82
2023/10/28 01:10:30;;;;;;;31.87;22.90;;;21.50;46.10;;;;;;4962419;28;20236;-82
2023/10/28 01:12:56;;;;;;;30.13;22.57;;;21.50;46.00;;;;;;4953118;28;20223;-82
2023/10/28 01:15:23;;;;;;;34.17;23.40;;;21.50;46.00;;;;;;4962527;28;21432;-83
2023/10/28 01:17:49;;;;;;;30.20;22.13;;;21.50;46.00;;;;;;4961195;28;20673;-82
2023/10/28 01:20:15;;;;;;;27.20;21.07;;;21.50;46.00;;;;;;4959978;28;20493;-83
2023/10/28 01:22:40;;;;;;;24.83;20.30;;;21.50;46.00;;;;;;4951919;28;20801;-83
2023/10/28 01:25:07;;;;;;;27.30;20.40;;;21.50;46.30;;;;;;4962509;28;20520;-83
2023/10/28 01:27:32;;;;;;;26.13;21.40;;;21.50;46.00;;;;;;4960091;28;20231;-83
2023/10/28 01:29:58;;;;;;;26.10;20.90;;;21.50;46.00;;;;;;4964526;28;20463;-83
2023/10/28 01:32:24;;;;;;;24.83;20.63;;;21.50;46.00;;;;;;4960731;28;20585;-83
2023/10/28 01:34:52;;;;;;;28.30;20.63;;;21.50;46.10;;;;;;4956786;28;20493;-83
2023/10/28 01:37:19;;;;;;;27.00;21.27;;;21.50;46.10;;;;;;4959655;28;20216;-83
2023/10/28 01:39:47;;;;;;;27.37;21.50;;;21.50;46.10;;;;;;4961210;28;21059;-83
2023/10/28 01:42:13;;;;;;;28.60;21.03;;;21.50;46.10;;;;;;4949919;28;20990;-83
2023/10/28 01:44:39;;;;;;;27.83;20.50;;;21.50;46.10;;;;;;4940361;28;20467;-83
2023/10/28 01:47:08;;;;;;;28.00;21.80;;;21.40;46.00;;;;;;4968504;28;20224;-83
2023/10/28 01:49:37;;;;;;;26.37;20.83;;;21.50;46.10;;;;;;4948897;28;21119;-83
2023/10/28 01:52:04;;;;;;;25.60;19.90;;;21.50;46.10;;;;;;4960524;28;20461;-83
2023/10/28 01:54:30;;;;;;;26.33;19.40;;;21.50;46.20;;;;;;4974321;28;20559;-82
2023/10/28 01:56:57;;;;;;;27.40;20.23;;;21.50;46.20;;;;;;4945306;28;20811;-82
2023/10/28 01:59:25;;;;;;;23.60;19.80;;;21.50;46.10;;;;;;4967729;28;20510;-82
2023/10/28 02:01:51;;;;;;;27.70;21.77;;;21.50;46.20;;;;;;4965207;28;20470;-82
2023/10/28 02:04:16;;;;;;;27.30;20.80;;;21.50;46.20;;;;;;4959638;28;20477;-82
2023/10/28 02:06:44;;;;;;;26.30;19.43;;;21.50;46.20;;;;;;4956892;28;20279;-82
2023/10/28 02:09:10;;;;;;;22.13;19.20;;;21.50;46.20;;;;;;4947757;28;20224;-83
2023/10/28 02:11:39;;;;;;;22.40;19.43;;;21.50;47.00;;;;;;4966477;28;20511;-82
2023/10/28 02:14:05;;;;;;;21.23;18.50;;;21.50;46.20;;;;;;4963513;28;20235;-82
2023/10/28 02:16:30;;;;;;;24.60;19.07;;;21.50;46.10;;;;;;4962029;28;20466;-82
2023/10/28 02:18:56;;;;;;;24.10;19.10;;;21.50;47.00;;;;;;4955602;28;20235;-82
2023/10/28 02:21:22;;;;;;;26.30;17.27;;;21.40;46.00;;;;;;4958356;28;20335;-82
2023/10/28 02:23:47;;;;;;;21.87;18.10;;;21.50;46.30;;;;;;4960468;28;20992;-82
2023/10/28 02:26:13;;;;;;;18.27;16.30;;;21.40;46.10;;;;;;4960805;28;20216;-82
2023/10/28 02:28:38;;;;;;;19.93;17.27;;;21.40;46.10;;;;;;4964584;28;20340;-82
2023/10/28 02:31:09;;;;;;;20.23;17.50;;;21.40;46.10;;;;;;4959770;28;20237;-82
2023/10/28 02:33:35;;;;;;;25.20;18.20;;;21.40;46.10;;;;;;4958067;28;20235;-82
2023/10/28 02:36:05;;;;;;;24.70;18.20;;;21.40;46.10;;;;;;4958074;28;20953;-82
2023/10/28 02:38:32;;;;;;;20.80;18.20;;;21.40;46.10;;;;;;4949475;28;20470;-83
2023/10/28 02:40:58;;;;;;;21.83;17.93;;;21.40;46.20;;;;;;4961330;28;20473;-82
2023/10/28 02:43:23;;;;;;;21.33;17.20;;;21.50;46.40;;;;;;4961854;28;21012;-82
2023/10/28 02:45:49;;;;;;;22.03;16.67;;;21.40;46.20;;;;;;4961418;28;20463;-82
2023/10/28 02:48:14;;;;;;;21.10;18.00;;;21.40;46.20;;;;;;4961666;28;20224;-82
2023/10/28 02:50:40;;;;;;;22.20;17.23;;;21.40;46.20;;;;;;4965794;28;20680;-82
2023/10/28 02:53:06;;;;;;;20.63;16.73;;;21.40;46.20;;;;;;4969691;28;20287;-82
2023/10/28 02:55:37;;;;;;;21.47;17.00;;;21.40;46.30;;;;;;4969799;28;20278;-82
2023/10/28 02:58:04;;;;;;;22.17;17.60;;;21.40;46.20;;;;;;4962117;28;20243;-82
2023/10/28 03:00:30;;;;;;;20.63;15.73;;;21.40;46.30;;;;;;4961896;28;20509;-81
2023/10/28 03:02:57;;;;;;;23.20;17.53;;;21.40;46.20;;;;;;4965598;28;20509;-81
2023/10/28 03:05:24;;;;;;;19.20;16.50;;;21.40;46.20;;;;;;4969459;28;20451;-82
2023/10/28 03:07:52;;;;;;;21.10;17.20;;;21.40;46.20;;;;;;4951199;28;20967;-82
2023/10/28 03:10:18;;;;;;;20.13;16.37;;;21.40;46.20;;;;;;4959227;28;20462;-82
2023/10/28 03:12:44;;;;;;;21.63;17.10;;;21.40;46.20;;;;;;4961238;28;20494;-82
2023/10/28 03:15:10;;;;;;;17.97;15.23;;;21.40;46.20;;;;;;4959782;28;20230;-82
2023/10/28 03:17:36;;;;;;;20.80;17.00;;;21.40;46.20;;;;;;4976991;28;20481;-82
2023/10/28 03:20:03;;;;;;;24.17;16.97;;;21.40;46.30;;;;;;4946607;28;20616;-82
2023/10/28 03:22:29;;;;;;;21.33;17.00;;;21.40;46.30;;;;;;4964998;28;20520;-82
2023/10/28 03:24:54;;;;;;;18.80;16.03;;;21.40;46.30;;;;;;4971149;28;20421;-83
2023/10/28 03:27:20;;;;;;;18.73;16.07;;;21.40;46.20;;;;;;4962836;28;20559;-82
2023/10/28 03:29:46;;;;;;;20.20;17.00;;;21.40;46.30;;;;;;4967614;28;20342;-82
2023/10/28 03:32:11;;;;;;;19.77;16.60;;;21.40;46.20;;;;;;4962804;28;20591;-82
2023/10/28 03:34:37;;;;;;;18.43;16.53;;;21.40;46.20;;;;;;4961521;28;20244;-82
2023/10/28 03:37:03;;;;;;;20.17;16.23;;;21.40;46.20;;;;;;4959404;28;20239;-82
2023/10/28 03:39:29;;;;;;;18.43;15.17;;;21.40;46.20;;;;;;4960779;28;20249;-82
2023/10/28 03:41:54;;;;;;;19.90;16.50;;;21.40;46.30;;;;;;4964457;28;20307;-82
2023/10/28 03:44:20;;;;;;;19.90;15.93;;;21.40;46.30;;;;;;4964433;28;20453;-83
2023/10/28 03:46:46;;;;;;;18.60;16.03;;;21.40;46.30;;;;;;4962232;28;20717;-82
2023/10/28 03:49:12;;;;;;;19.77;16.33;;;21.40;46.30;;;;;;4960759;28;20678;-82
2023/10/28 03:51:40;;;;;;;16.80;15.13;;;21.40;46.30;;;;;;4965876;28;20711;-82
2023/10/28 03:54:07;;;;;;;18.10;15.07;;;21.40;46.20;;;;;;4963210;28;20823;-82
2023/10/28 03:56:32;;;;;;;17.20;15.20;;;21.40;46.30;;;;;;4962393;28;20466;-82
2023/10/28 03:58:58;;;;;;;17.50;14.93;;;21.40;46.20;;;;;;4970922;28;20473;-82
2023/10/28 04:01:23;;;;;;;19.13;15.57;;;21.40;46.30;;;;;;4961500;28;20248;-83
2023/10/28 04:03:49;;;;;;;15.40;13.80;;;21.40;46.30;;;;;;4963417;28;20878;-82
2023/10/28 04:06:15;;;;;;;16.90;15.20;;;21.40;46.20;;;;;;4959991;28;20216;-82
2023/10/28 04:08:41;;;;;;;15.77;14.17;;;21.40;46.20;;;;;;4970926;28;20220;-83
2023/10/28 04:11:06;;;;;;;14.90;13.13;;;21.40;46.30;;;;;;4966490;28;20212;-82
2023/10/28 04:13:32;;;;;;;17.83;14.87;;;21.40;46.20;;;;;;4952889;28;20238;-82
2023/10/28 04:15:59;;;;;;;16.00;14.23;;;21.40;46.20;;;;;;4969259;28;20304;-82
2023/10/28 04:18:24;;;;;;;15.57;13.90;;;21.40;46.20;;;;;;4968705;28;20505;-82
2023/10/28 04:20:50;;;;;;;17.40;15.30;;;21.40;46.20;;;;;;4970032;28;20633;-82
2023/10/28 04:23:17;;;;;;;19.97;15.13;;;21.40;46.30;;;;;;4958105;28;20219;-82
2023/10/28 04:25:42;;;;;;;14.33;12.93;;;21.40;46.20;;;;;;4974542;28;20870;-82
2023/10/28 04:28:08;;;;;;;14.17;12.67;;;21.40;46.10;;;;;;4990589;28;20974;-82
2023/10/28 04:30:34;;;;;;;14.63;13.13;;;21.40;46.20;;;;;;4970962;28;20235;-83
2023/10/28 04:32:59;;;;;;;18.30;14.80;;;21.40;46.20;;;;;;4966307;28;20262;-82
2023/10/28 04:35:25;;;;;;;16.77;13.67;;;21.40;46.20;;;;;;4971646;28;20283;-82
2023/10/28 04:37:51;;;;;;;15.53;13.40;;;21.40;46.30;;;;;;4967353;28;20228;-82
2023/10/28 04:40:16;;;;;;;15.77;13.60;;;21.40;46.20;;;;;;4972842;28;20240;-82
2023/10/28 04:42:42;;;;;;;14.47;12.80;;;21.40;46.20;;;;;;4968242;28;20216;-82
2023/10/28 04:45:10;;;;;;;18.07;14.23;;;21.40;46.10;;;;;;4970492;28;20310;-82
2023/10/28 04:47:37;;;;;;;15.00;13.10;;;21.50;46.10;;;;;;4969239;28;20286;-83
2023/10/28 04:50:03;;;;;;;13.87;12.40;;;21.50;46.10;;;;;;4969790;28;20462;-82
2023/10/28 04:52:30;;;;;;;15.43;13.17;;;21.50;46.10;;;;;;4971382;28;20481;-82
2023/10/28 04:54:56;;;;;;;14.67;12.87;;;21.50;46.10;;;;;;4974382;28;20493;-82
2023/10/28 04:57:21;;;;;;;12.50;11.20;;;21.50;46.00;;;;;;4973187;28;20509;-83
2023/10/28 04:59:49;;;;;;;13.67;11.90;;;21.50;46.00;;;;;;4957832;28;20241;-83
2023/10/28 05:02:15;;;;;;;13.30;11.77;;;21.50;46.00;;;;;;4972071;28;20289;-82
2023/10/28 05:04:40;;;;;;;11.90;10.70;;;21.50;46.00;;;;;;4973775;28;20501;-82
2023/10/28 05:07:06;;;;;;;13.23;11.83;;;21.50;46.00;;;;;;4972473;28;20787;-82
2023/10/28 05:09:31;;;;;;;14.87;11.73;;;21.50;46.00;;;;;;4970478;28;20236;-81
2023/10/28 05:11:58;;;;;;;12.67;11.37;;;21.50;46.00;;;;;;4973828;28;20612;-81
2023/10/28 05:14:24;;;;;;;12.00;10.77;;;21.50;46.80;;;;;;4955863;28;20227;-82
2023/10/28 05:16:52;;;;;;;12.30;10.90;;;21.50;46.00;;;;;;4969360;28;20502;-82
2023/10/28 05:19:20;;;;;;;13.23;11.83;;;21.50;46.00;;;;;;4965186;28;20481;-83
2023/10/28 05:21:46;;;;;;;13.60;11.90;;;21.50;46.00;;;;;;4972057;28;21098;-84
2023/10/28 05:24:12;;;;;;;12.90;11.17;;;21.50;46.00;;;;;;4974387;28;20852;-84
2023/10/28 05:26:38;;;;;;;13.10;11.70;;;21.50;46.00;;;;;;4972839;28;20462;-85
2023/10/28 05:29:03;;;;;;;12.87;11.57;;;21.50;46.10;;;;;;4969510;28;20232;-85
2023/10/28 05:31:29;;;;;;;12.47;11.27;;;21.50;46.00;;;;;;4972039;28;20696;-85
2023/10/28 05:33:55;;;;;;;12.97;11.60;;;21.50;46.00;;;;;;4973567;28;20447;-84
2023/10/28 05:36:21;;;;;;;11.97;10.47;;;21.60;46.10;;;;;;4973123;28;20236;-85
2023/10/28 05:38:46;;;;;;;11.70;10.50;;;21.50;46.00;;;;;;4972999;28;20458;-85
2023/10/28 05:41:12;;;;;;;11.70;10.60;;;21.60;46.10;;;;;;4959232;28;20542;-85
2023/10/28 05:43:38;;;;;;;12.03;10.93;;;21.50;46.00;;;;;;4964404;28;20241;-84
2023/10/28 05:46:04;;;;;;;12.23;10.93;;;21.60;46.10;;;;;;4974260;28;20224;-84
2023/10/28 05:48:30;;;;;;;11.33;10.20;;;21.60;46.10;;;;;;4971672;28;20239;-85
2023/10/28 05:50:57;;;;;;;14.07;11.73;;;21.50;46.00;;;;;;4974740;28;20533;-83
2023/10/28 05:53:23;;;;;;;11.80;10.60;;;21.60;46.10;;;;;;4970014;28;20559;-83
2023/10/28 05:55:49;;;;;;;10.70;9.70;;;21.60;46.10;;;;;;4969631;28;20523;-83
2023/10/28 05:58:15;;;;;;;12.03;10.30;;;21.50;46.00;;;;;;4971662;28;20485;-83
2023/10/28 06:00:41;;;;;;;12.90;10.37;;;21.60;46.10;;;;;;4958642;28;20221;-83
2023/10/28 06:03:08;;;;;;;10.50;9.50;;;21.60;46.10;;;;;;4968270;28;20774;-83
2023/10/28 06:05:34;;;;;;;11.57;10.47;;;21.60;46.10;;;;;;4973040;28;20542;-83
2023/10/28 06:10:35;;;;;;;10.40;9.40;;;21.60;46.10;;;;;;1460528;26;20493;-76
2023/10/28 06:13:01;;;;;;;11.60;10.40;;;21.50;46.00;;;;;;4965386;22;20477;-66
2023/10/28 06:15:27;;;;;;;12.77;10.10;;;21.60;46.10;;;;;;4967854;28;20228;-65
2023/10/28 06:17:52;;;;;;;11.20;10.10;;;21.60;46.10;;;;;;4964985;28;20481;-66
2023/10/28 06:20:20;;;;;;;9.93;8.97;;;21.60;46.10;;;;;;4960161;28;20765;-67
2023/10/28 06:22:46;;;;;;;9.30;8.50;;;21.60;46.00;;;;;;4966590;28;20232;-66
2023/10/28 06:25:14;;;;;;;10.07;9.03;;;21.60;46.10;;;;;;4968634;28;20473;-67
2023/10/28 06:27:40;;;;;;;11.70;10.07;;;21.60;46.10;;;;;;4968263;28;20338;-67
2023/10/28 06:30:06;;;;;;;10.40;9.40;;;21.60;46.10;;;;;;4967681;28;20793;-66
2023/10/28 06:32:31;;;;;;;12.57;10.00;;;21.60;46.10;;;;;;4967203;28;20267;-67
2023/10/28 06:34:57;;;;;;;10.67;9.57;;;21.60;46.10;;;;;;4967333;28;21020;-67
2023/10/28 06:37:23;;;;;;;10.53;9.30;;;21.60;46.10;;;;;;4972106;28;20727;-67
2023/10/28 06:39:49;;;;;;;9.87;8.83;;;21.60;46.10;;;;;;4966516;28;20451;-66
2023/10/28 06:42:14;;;;;;;9.80;8.90;;;21.60;46.10;;;;;;4965941;28;20251;-66
2023/10/28 06:44:40;;;;;;;11.53;9.20;;;21.60;46.10;;;;;;4960461;28;20243;-67
2023/10/28 06:47:07;;;;;;;9.67;8.77;;;21.60;46.10;;;;;;4963867;28;21497;-67
2023/10/28 06:49:32;;;;;;;13.80;10.13;;;21.60;46.10;;;;;;4959170;28;20572;-67
2023/10/28 06:51:58;;;;;;;9.77;8.87;;;21.60;46.10;;;;;;4961205;28;20465;-66
2023/10/28 06:54:24;;;;;;;10.20;8.47;;;21.60;46.10;;;;;;4967007;28;20224;-66
2023/10/28 06:56:50;;;;;;;10.23;9.23;;;21.60;46.10;;;;;;4970382;28;20224;-67
2023/10/28 06:59:16;;;;;;;9.40;8.60;;;21.60;46.10;;;;;;4969489;28;20576;-66
2023/10/28 07:01:41;;;;;;;9.73;8.77;;;21.60;46.10;;;;;;4965769;28;20473;-66
2023/10/28 07:04:07;;;;;;;9.10;8.13;;;21.60;46.10;;;;;;4969395;28;20477;-66
2023/10/28 07:06:32;;;;;;;9.07;8.17;;;21.60;46.10;;;;;;4965994;28;20220;-66
2023/10/28 07:08:58;;;;;;;11.00;8.87;;;21.60;46.10;;;;;;4969297;28;20632;-67
2023/10/28 07:11:24;;;;;;;9.83;8.87;;;21.60;46.10;;;;;;4969222;28;20639;-67
2023/10/28 07:13:49;;;;;;;9.13;8.23;;;21.60;46.10;;;;;;4959964;28;20224;-66
2023/10/28 07:16:18;;;;;;;10.20;8.77;;;21.60;46.10;;;;;;4959824;28;21067;-67
2023/10/28 07:18:44;;;;;;;9.23;8.33;;;21.60;46.10;;;;;;4964929;28;20953;-67
2023/10/28 07:21:09;;;;;;;8.90;8.10;;;21.60;46.10;;;;;;4961259;28;21052;-66
2023/10/28 07:23:35;;;;;;;8.63;7.90;;;21.60;46.10;;;;;;4964133;28;20705;-66
2023/10/28 07:26:01;;;;;;;9.43;7.60;;;21.60;46.10;;;;;;4963078;28;20579;-66
2023/10/28 07:28:33;;;;;;;8.63;7.73;;;21.60;46.10;;;;;;4956300;28;20223;-67
2023/10/28 07:31:00;;;;;;;8.20;7.50;;;21.60;46.10;;;;;;4955987;28;20485;-66
2023/10/28 07:33:26;;;;;;;9.67;8.70;;;21.60;46.10;;;;;;4960116;28;20470;-67
2023/10/28 07:35:51;;;;;;;9.50;7.80;;;21.60;46.10;;;;;;4958236;28;20726;-67
2023/10/28 07:38:21;;;;;;;7.67;7.07;;;21.60;46.10;;;;;;4960551;28;22793;-65
2023/10/28 07:40:49;;;;;;;10.67;7.83;;;21.60;46.10;;;;;;4939269;28;20224;-66
2023/10/28 07:43:17;;;;;;;11.40;7.40;;;21.60;46.10;;;;;;4962288;28;20472;-65
2023/10/28 07:45:44;;;;;;;13.43;8.20;;;21.60;46.10;;;;;;4959680;28;20469;-67
2023/10/28 07:48:11;;;;;;;11.17;8.30;;;21.60;46.10;;;;;;4962645;28;20502;-66
2023/10/28 07:50:37;;;;;;;11.33;8.30;;;21.60;46.10;;;;;;4967377;28;20476;-66
2023/10/28 07:53:04;;;;;;;10.87;8.40;;;21.60;46.10;;;;;;4963549;28;20524;-65
2023/10/28 07:56:43;;;;;;;18.10;9.27;;;21.60;45.40;;;;;;4991102;28;21176;-66
2023/10/28 07:59:09;;;;;;;17.43;8.37;;;21.60;46.10;;;;;;4994294;28;20481;-71
2023/10/28 08:01:35;;;;;;;250.00;23.43;;;21.60;46.10;;;;;;4991809;28;20390;-70
2023/10/28 08:04:04;;;;;;;81.57;14.70;;;21.60;46.10;;;;;;4988641;28;20877;-67
2023/10/28 08:06:30;;;;;;;43.67;9.70;;;21.60;45.90;;;;;;4992433;28;20306;-66
2023/10/28 08:08:55;;;;;;;13.70;7.73;;;21.60;45.70;;;;;;4989546;28;20462;-66
2023/10/28 08:11:24;;;;;;;19.80;8.40;;;21.70;45.60;;;;;;4982988;28;20219;-66
2023/10/28 08:13:49;;;;;;;18.90;8.00;;;21.70;45.60;;;;;;4975282;28;20223;-69
2023/10/28 08:16:18;;;;;;;13.27;7.63;;;21.70;45.50;;;;;;4983809;28;20493;-67
2023/10/28 08:18:45;;;;;;;16.83;7.13;;;21.70;45.50;;;;;;4993597;28;20332;-71
2023/10/28 08:21:10;;;;;;;11.10;6.53;;;21.70;45.60;;;;;;4992565;28;20522;-67
2023/10/28 08:23:39;;;;;;;8.00;6.30;;;21.80;45.60;;;;;;4990016;28;20481;-67
2023/10/28 08:26:08;;;;;;;8.33;5.63;;;21.80;45.60;;;;;;4992971;28;20272;-67
2023/10/28 08:28:33;;;;;;;7.90;6.00;;;21.80;45.50;;;;;;4988057;28;20992;-67
2023/10/28 08:30:59;;;;;;;6.37;5.00;;;21.80;45.60;;;;;;4994058;28;20514;-66
2023/10/28 08:33:24;;;;;;;5.23;4.73;;;21.80;45.60;;;;;;5005543;28;20224;-67
2023/10/28 08:35:51;;;;;;;4.93;4.53;;;21.80;45.70;;;;;;4988096;28;20243;-67
2023/10/28 08:38:17;;;;;;;4.47;4.17;;;21.80;45.70;;;;;;4990929;28;20219;-67
2023/10/28 08:40:47;;;;;;;5.00;4.60;;;21.80;45.70;;;;;;4991562;28;20465;-67
2023/10/28 08:43:16;;;;;;;5.10;4.70;;;21.80;45.70;;;;;;4988586;28;20561;-66
2023/10/28 08:45:42;;;;;;;4.57;4.27;;;21.80;45.80;;;;;;5002470;28;20495;-67
2023/10/28 08:48:11;;;;;;;4.50;3.53;;;21.80;45.80;;;;;;4997856;28;20464;-67
2023/10/28 08:50:39;;;;;;;4.20;3.90;;;21.80;45.80;;;;;;5005464;28;20500;-67
2023/10/28 08:53:06;;;;;;;6.33;5.70;;;21.80;45.80;;;;;;5005340;28;21163;-67
2023/10/28 08:55:35;;;;;;;7.30;5.03;;;21.80;45.80;;;;;;4982798;28;20481;-67
2023/10/28 08:58:01;;;;;;;5.83;5.30;;;21.80;45.80;;;;;;4999921;28;20475;-67
2023/10/28 09:00:30;;;;;;;5.10;4.70;;;21.80;45.80;;;;;;4999571;28;20461;-67
2023/10/28 09:02:56;;;;;;;5.27;4.87;;;21.80;45.80;;;;;;4984286;28;20455;-66
2023/10/28 09:05:22;;;;;;;5.90;4.57;;;21.70;45.70;;;;;;4992642;28;20828;-66
2023/10/28 09:07:47;;;;;;;7.60;5.03;;;21.70;45.70;;;;;;4993117;28;20459;-66
2023/10/28 09:10:14;;;;;;;4.93;4.53;;;21.70;45.70;;;;;;4992895;28;20976;-66
2023/10/28 09:12:40;;;;;;;5.43;5.03;;;21.70;45.70;;;;;;4986757;28;21010;-66
2023/10/28 09:15:08;;;;;;;4.93;4.53;;;21.70;45.70;;;;;;4984586;28;20863;-66
2023/10/28 09:17:34;;;;;;;5.50;5.00;;;21.70;45.70;;;;;;4978386;28;20553;-66
2023/10/28 09:20:00;;;;;;;6.57;4.37;;;21.70;45.60;;;;;;4973795;28;20472;-66
2023/10/28 09:22:26;;;;;;;5.47;5.00;;;21.70;45.60;;;;;;4976298;28;22347;-66
2023/10/28 09:24:53;;;;;;;5.13;4.73;;;21.70;45.50;;;;;;4984313;28;20458;-66
2023/10/28 09:27:19;;;;;;;4.97;4.57;;;21.70;45.50;;;;;;4988811;28;20231;-66
2023/10/28 09:29:45;;;;;;;4.67;4.37;;;21.70;45.50;;;;;;4992299;28;20991;-68
2023/10/28 09:32:11;;;;;;;4.27;3.87;;;21.70;45.50;;;;;;4988392;28;20333;-66
2023/10/28 09:34:40;;;;;;;5.20;4.30;;;21.70;45.50;;;;;;4985252;28;20982;-66
2023/10/28 09:37:07;;;;;;;5.10;4.27;;;21.70;45.40;;;;;;4976805;28;20245;-66
2023/10/28 09:39:33;;;;;;;4.80;4.50;;;21.70;45.50;;;;;;4979265;28;20472;-66
2023/10/28 09:41:59;;;;;;;4.67;4.37;;;21.70;45.40;;;;;;4988329;28;20548;-66
2023/10/28 09:44:26;;;;;;;5.23;4.83;;;21.70;45.40;;;;;;4981646;28;20718;-66
2023/10/28 09:46:59;;;;;;;4.93;4.63;;;21.70;45.30;;;;;;4988115;28;20456;-68
2023/10/28 09:49:28;;;;;;;4.63;4.13;;;21.70;45.30;;;;;;4984875;28;21173;-66
2023/10/28 09:52:05;;;;;;;4.37;3.93;;;21.60;45.20;;;;;;4982108;28;20468;-66
2023/10/28 09:54:35;;;;;;;4.70;4.30;;;21.60;45.10;;;;;;4978052;28;20465;-67
2023/10/28 09:57:01;;;;;;;6.33;4.40;;;21.70;45.30;;;;;;4988634;28;20466;-66
2023/10/28 09:59:33;;;;;;;4.73;4.13;;;21.70;45.20;;;;;;4988199;28;20530;-67
2023/10/28 10:02:23;;;;;;;4.90;4.30;;;21.60;45.10;;;;;;4990095;28;20519;-65
2023/10/28 10:04:58;;;;;;;4.43;4.13;;;21.60;45.10;;;;;;4990826;28;20527;-67
2023/10/28 10:07:24;;;;;;;4.00;3.70;;;21.60;45.10;;;;;;4970060;28;20556;-66
2023/10/28 10:09:49;;;;;;;5.77;4.07;;;21.60;45.10;;;;;;4965369;28;20453;-66
2023/10/28 10:12:15;;;;;;;2.93;2.73;;;21.60;45.10;;;;;;4981866;28;20450;-67
2023/10/28 10:14:45;;;;;;;5.40;4.07;;;21.60;45.00;;;;;;4963264;28;20235;-66
2023/10/28 10:17:31;;;;;;;4.33;3.60;;;21.60;44.90;;;;;;4972424;28;20533;-66
2023/10/28 10:20:04;;;;;;;4.30;4.00;;;21.60;44.90;;;;;;4983294;28;20473;-66
2023/10/28 10:22:31;;;;;;;5.37;3.80;;;21.60;44.90;;;;;;4981292;28;20508;-67
2023/10/28 10:24:57;;;;;;;4.27;4.07;;;21.60;44.90;;;;;;4990064;28;20477;-64
2023/10/28 10:27:35;;;;;;;5.10;3.60;;;21.60;44.90;;;;;;4992078;28;20928;-65
2023/10/28 10:30:09;;;;;;;6.70;4.53;;;21.60;44.90;;;;;;4988296;28;21370;-67
2023/10/28 10:32:41;;;;;;;3.90;3.50;;;21.60;44.90;;;;;;4974829;28;20465;-65
2023/10/28 10:35:27;;;;;;;3.50;3.30;;;21.60;44.90;;;;;;4982006;28;20985;-66
2023/10/28 10:38:03;;;;;;;3.80;3.40;;;21.60;44.90;;;;;;4981887;28;20467;-66
2023/10/28 10:40:32;;;;;;;3.00;2.80;;;21.60;45.00;;;;;;4966376;28;20450;-65
2023/10/28 10:43:07;;;;;;;3.63;3.40;;;21.60;45.70;;;;;;4984642;28;20857;-67
2023/10/28 10:45:34;;;;;;;3.43;3.13;;;21.60;44.90;;;;;;4966518;28;20473;-67
2023/10/28 10:48:04;;;;;;;4.27;3.10;;;21.60;44.90;;;;;;4979777;28;20504;-66
2023/10/28 10:50:31;;;;;;;3.90;3.60;;;21.60;44.80;;;;;;4982852;28;20563;-67
2023/10/28 10:52:57;;;;;;;3.20;3.00;;;21.60;44.90;;;;;;4984436;28;20873;-65
2023/10/28 10:55:23;;;;;;;3.30;3.00;;;21.60;44.80;;;;;;4981856;28;21017;-66
2023/10/28 10:57:52;;;;;;;3.40;2.83;;;21.60;44.80;;;;;;4989333;28;20461;-65
2023/10/28 11:00:18;;;;;;;3.10;2.90;;;21.60;44.90;;;;;;4988673;28;20282;-66
2023/10/28 11:02:45;;;;;;;3.50;3.03;;;21.60;44.70;;;;;;4992456;28;20454;-67
2023/10/28 11:05:12;;;;;;;2.67;2.47;;;21.60;44.80;;;;;;4988493;28;20558;-66
2023/10/28 11:07:37;;;;;;;2.77;2.57;;;21.60;44.70;;;;;;4981645;28;20473;-66
2023/10/28 11:10:08;;;;;;;3.13;2.90;;;21.60;44.70;;;;;;4990480;28;20479;-66
2023/10/28 11:12:34;;;;;;;2.23;2.13;;;21.60;44.70;;;;;;4979836;28;20286;-66
2023/10/28 11:15:00;;;;;;;3.00;2.70;;;21.60;44.70;;;;;;4987490;28;20481;-65
2023/10/28 11:17:26;;;;;;;2.80;2.50;;;21.60;44.70;;;;;;4991176;28;20445;-65
2023/10/28 11:19:52;;;;;;;3.70;3.40;;;21.60;44.70;;;;;;4973791;28;20868;-67
2023/10/28 11:22:18;;;;;;;3.13;2.93;;;21.60;45.50;;;;;;4981574;28;20527;-68
2023/10/28 11:24:44;;;;;;;3.00;2.80;;;21.60;44.80;;;;;;4980169;28;20940;-68
2023/10/28 11:27:18;;;;;;;3.17;2.97;;;21.60;44.70;;;;;;4986193;28;20473;-66
2023/10/28 11:29:44;;;;;;;2.53;2.33;;;21.60;44.70;;;;;;5001384;28;20652;-66
2023/10/28 11:32:10;;;;;;;3.73;3.47;;;21.60;44.70;;;;;;4992832;28;20529;-66
2023/10/28 11:34:40;;;;;;;2.70;2.50;;;21.60;44.70;;;;;;4994579;28;20235;-66
2023/10/28 11:37:12;;;;;;;2.50;2.30;;;21.60;44.70;;;;;;4983041;28;20532;-66
2023/10/28 11:39:44;;;;;;;3.00;2.80;;;21.60;44.70;;;;;;4979397;28;20462;-67
2023/10/28 11:42:14;;;;;;;3.53;3.23;;;21.60;44.70;;;;;;4972546;28;20466;-66
2023/10/28 11:44:41;;;;;;;3.20;2.60;;;21.60;44.70;;;;;;4966532;28;20568;-65
2023/10/28 11:47:09;;;;;;;2.93;2.73;;;21.60;44.70;;;;;;4969553;28;20541;-66
2023/10/28 11:49:34;;;;;;;2.90;2.70;;;21.60;44.70;;;;;;4972722;28;20477;-66
2023/10/28 11:52:00;;;;;;;2.73;2.53;;;21.60;44.70;;;;;;4970983;28;20468;-66
2023/10/28 11:54:26;;;;;;;2.30;2.20;;;21.60;44.70;;;;;;4985510;28;20236;-66
2023/10/28 11:56:52;;;;;;;3.03;2.83;;;21.60;44.70;;;;;;4971612;28;20273;-66
2023/10/28 11:59:18;;;;;;;2.87;2.70;;;21.60;44.80;;;;;;4966692;28;21146;-66
2023/10/28 12:01:43;;;;;;;4.53;2.30;;;21.60;44.70;;;;;;4966436;28;20887;-65
2023/10/28 12:04:09;;;;;;;4.13;3.00;;;21.60;44.80;;;;;;4976407;28;20224;-64
2023/10/28 12:06:35;;;;;;;3.20;2.90;;;21.60;44.70;;;;;;4977015;28;20230;-65
2023/10/28 12:09:04;;;;;;;2.90;2.70;;;21.60;44.70;;;;;;4978035;28;20219;-66
2023/10/28 12:11:31;;;;;;;2.60;2.40;;;21.60;44.70;;;;;;4980956;28;20472;-65
2023/10/28 12:13:57;;;;;;;2.63;2.43;;;21.60;44.70;;;;;;4975775;28;20454;-64
2023/10/28 12:16:23;;;;;;;4.30;2.97;;;21.60;44.70;;;;;;4976940;28;20471;-69
2023/10/28 12:18:49;;;;;;;6.43;2.63;;;21.60;44.70;;;;;;4966616;28;20228;-68
2023/10/28 12:21:17;;;;;;;3.40;3.00;;;21.60;44.70;;;;;;4966977;28;20462;-70
2023/10/28 12:23:44;;;;;;;10.60;3.20;;;21.60;44.80;;;;;;4977833;28;20224;-70
2023/10/28 12:26:11;;;;;;;4.03;2.50;;;21.60;44.70;;;;;;4969946;28;20476;-70
2023/10/28 12:28:36;;;;;;;8.57;3.03;;;21.60;44.70;;;;;;4974832;28;20461;-69
2023/10/28 12:31:03;;;;;;;6.37;3.80;;;21.60;44.80;;;;;;4969347;28;20515;-69
2023/10/28 12:33:29;;;;;;;4.77;2.43;;;21.60;44.70;;;;;;4976613;28;20224;-69
2023/10/28 12:35:55;;;;;;;8.27;3.53;;;21.60;44.70;;;;;;4980653;28;20596;-70
2023/10/28 12:38:20;;;;;;;5.03;3.53;;;21.70;44.80;;;;;;4975962;28;20474;-70